Airfield :
LOGIN :

Register | Disclaimer

   EN    FR    IT 

 










Legend :    VFR   Marginal VFR   IFR   Intensive IFR   Very Intensive IFR
Visi :
Ceiling :
>= 8 km
>= 3000ft
5 to 8 km
1000 to 3000 ft
1500m to 5 km
500 to 1000 ft
800 to 1500m
200 to 500 ft
< 800m
< 200 ft
Symbols :   Thunderstorms  Fog  Heavy snow  Heavy precipitations  Wind > 20 kt
SIGMETs :     Misc.  Thunderstorms  Icing  Turbulence  Mountain Waves  Volcanic Ashes







- Airport Elevation : 359 ft
- IATA code : BVA
- Download approach charts


LFOB - Beauvais

CURRENT METAR :
  • 191230Z AUTO 27007KT 230V310 CAVOK 23/14 Q1022 NOSIG

EXPIRED METARs :
  • 191200Z AUTO 26009KT 220V300 CAVOK 23/15 Q1022 NOSIG
  • 191130Z AUTO 24008KT 190V270 CAVOK 22/14 Q1022 NOSIG
  • 191100Z AUTO 24009KT 200V290 9999 FEW023 22/14 Q1022 NOSIG
  • 191030Z AUTO 25009KT 200V300 9999 FEW023 21/14 Q1023 NOSIG
  • 191000Z AUTO 26009KT 210V300 9999 BKN022 20/14 Q1023 NOSIG

TAF TAF LFOB
Valid from the 19 at 12:00 until the 20 at 12:00 UTC


191100Z 1912/2012 26010KT 9999 BKN020
BECMG 1919/1922 OVC012
TEMPO 2000/2008 BKN005
BECMG 2008/2011 BKN020
ATIS : +33 3 44 11 49 28
No reported NOTAMs for that airfield.



MET'MAP, your aeronautical weather chart ! - Copyright ORBIFLY December 2007 - Disclaimer

ORBIFLY MET'MAP TEAM :

Programming & Development : Alexandra Zaïnal
Concept & Development : Baudouin d'Aumeries
Co-Development & Prog : Marc-Olivier Méhu
Technical & hardware support : Manuel Goepfert

Contact : metmap@orbifly.com




SOURCES & CREDITS :

   NOAA